LROPLIRA

Guest
Details From LROP - Bucarest Otopeni Intl
To LIRA - CIAMPINO
Flight Number -
Tags decoded
Created
Modified
Stats Distance 619 nm / 1,147 km
Max Altitude 0 ft / 0 m
Waypoints 3
Social Downloads 0
Likes 0
Share VATSIM

Download

Looking for another format? Having issues loading an existing format? Contact us
Advertisement - Login to hide

Notes

Requested: LROP POLUN UY88 VRANA UZ924 MOPUV LIRA Unmatched points: UY88 UZ924 MOPUV

Route

LROP VRANA LIRA

ID Type Via Altitude Latitude Longitude Leg Dist Tot Dist Heading (true) Name
O LROP APT - 0 ft / 0 m 44.57216˚ 26.10218˚ - 0 nm - Bucarest Otopeni Intl
VRANA FIX - 0 ft / 0 m 43.75361˚ 17.53778˚ 372 nm 372 nm 265° / 259° -
O LIRA APT - 0 ft / 0 m 41.79923˚ 12.59492˚ 247 nm 619 nm 243° / 240° CIAMPINO

Altitude Profile

Advertisement - Login to hide

Weather


0- 5 10 15 20 25 30 35+ Temperature / ° C

Clouds and Precipitation
Forecast for 2017-12-14 18:00 UTC. Updated 2 hours ago

Ground ~20,000 ft ~40,000 ft Winds

LROP

Details ICAO LROP (OTP)
Name Bucarest Otopeni Intl
Region Romania
Timezone Europe/Bucharest (UTC+2.0)
Stats Elevation 314 ft / 96 m (AMSL)
Location 44.572161° 26.102177°
Runways 2
Magnetic Variation 5.606° E

METAR

LROP 141500Z 21007KT CAVOK 08/06 Q1010 NOSIG

Decode

TAF

TAF LROP 141100Z 1412/1512 25010KT CAVOK BECMG 1418/1420 5000 BR BKN015 TEMPO 1422/1506 3000 BR BKN010 BECMG 1507/1509 CAVOK

Decode

Departure Runways

ID Width Length Bearing (true) Bearing (mag) Surface Threshold Offset Overrun Length
08L 148 ft / 45 m 11,457 ft / 3,492 m 83.91° 78.30° Asphalt 500 ft / 152 m 0 ft / 0 m
08R 148 ft / 45 m 11,455 ft / 3,491 m 83.89° 78.28° Asphalt 450 ft / 137 m 0 ft / 0 m
26L 148 ft / 45 m 11,455 ft / 3,491 m 263.92° 258.31° Asphalt 450 ft / 137 m 0 ft / 0 m
26R 148 ft / 45 m 11,457 ft / 3,492 m 263.94° 258.33° Asphalt 500 ft / 152 m 0 ft / 0 m

LIRA

Details ICAO LIRA (CIA)
Name CIAMPINO
Region Italy
Timezone Europe/Rome (UTC+1.0)
Stats Elevation 427 ft / 130 m (AMSL)
Location 41.799228° 12.594917°
Runways 1
Magnetic Variation 3.058° E

METAR

LIRA 141450Z 15011KT 9000 BKN020 BKN050 12/09 Q1014

Decode

TAF

TAF LIRA 141100Z 1412/1512 24014KT 9999 SCT025 BKN050 TEMPO 1412/1421 RA BECMG 1414/1416 24015G25KT TEMPO 1421/1512 4000 RA

Decode

Destination Runways

ID Width Length Bearing (true) Bearing (mag) Surface Threshold Offset Overrun Length
15 154 ft / 47 m 7,246 ft / 2,209 m 152.79° 149.73° Asphalt 0 ft / 0 m 0 ft / 0 m
33 154 ft / 47 m 7,246 ft / 2,209 m 332.80° 329.74° Asphalt 0 ft / 0 m 0 ft / 0 m

Approach Navaids

Runway Type Ident Frequency Range Bearing (true) Bearing (mag) Slope Elevation
15 Localiser CIA 109.90 MHz 18 nm / 33 km 152.81° 149.75° - 426 ft / 130 m (AMSL)
15 Glidescope CIA 109.90 MHz 10 nm / 19 km 152.79° 149.74° 3.00° 384 ft / 117 m (AMSL)

Popular Alternatives